• Join FlightAware (Why Join?)
  • Login
  • US Flag 
10:10AM EST


 

Airport Tracker/Info


-or-


 

Live Flight TrackerFlight Track Log ✈ N782JC ✈ 04-Apr-2013 ✈ KSDL - KDSM

Flight Track Log - Related Links

Times and Time Zones

All times are in EDT time to prevent confusion due to time zone crossing. See the N782JC flight status page for this flight to view local times or setup timezone preferences in your user account.

Time Position Orientation Groundspeed Altitude Reporting Facility
EDT Latitude Longitude Course Direction KTS MPH feet Rate Location/Type
09:55AM 33.6333 -111.9000 320° Northwest 112 129 2,000  Level Phoenix TRACON
09:56AM 33.6500 -111.9167 320° Northwest 133 153 3,500 1,320 Climbing Phoenix TRACON
09:57AM 33.6650 -111.9400 308° West 131 151 4,500 1,200 Climbing Albuquerque Center
09:58AM 33.6958 -111.9169 32° Northeast 132 152 5,800 1,440 Climbing Albuquerque Center
09:59AM 33.7336 -111.8878 33° Northeast 139 160 7,500 1,500 Climbing Albuquerque Center
10:00AM 33.7686 -111.8739 18° North 133 153 8,900 1,320 Climbing Albuquerque Center
10:01AM 33.8014 -111.8564 24° Northeast 130 150 10,300 1,200 Climbing Albuquerque Center
10:02AM 33.8400 -111.8358 24° Northeast 149 171 11,400 1,140 Climbing Albuquerque Center
10:03AM 33.8817 -111.8161 21° North 159 183 12,700 840 Climbing Albuquerque Center
10:04AM 33.9281 -111.7922 23° Northeast 182 209 13,200 1,020 Climbing Albuquerque Center
10:05AM 33.9833 -111.7650 22° Northeast 183 211 14,900 1,260 Climbing Albuquerque Center
10:06AM 34.0264 -111.7422 24° Northeast 175 201 15,900 1,020 Climbing Albuquerque Center
10:07AM 34.0733 -111.7164 25° Northeast 183 211 17,000 840 Climbing Albuquerque Center
10:08AM 34.1131 -111.6733 42° Northeast 193 222 17,700 780 Climbing Albuquerque Center
10:09AM 34.1575 -111.6314 38° Northeast 200 230 18,600 840 Climbing Albuquerque Center
10:10AM 34.2011 -111.5928 36° Northeast 193 222 19,500 780 Climbing Albuquerque Center
10:11AM 34.2442 -111.5544 36° Northeast 194 223 20,300 720 Climbing Albuquerque Center
10:12AM 34.2975 -111.5064 37° Northeast 197 227 21,100 660 Climbing Albuquerque Center
10:13AM 34.3431 -111.4656 37° Northeast 202 232 21,700 540 Climbing Albuquerque Center
10:14AM 34.3875 -111.4219 39° Northeast 204 235 22,300 480 Climbing Albuquerque Center
10:15AM 34.4347 -111.3786 37° Northeast 211 243 22,800 480 Climbing Albuquerque Center
10:16AM 34.4831 -111.3361 36° Northeast 213 245 23,300 480 Climbing Albuquerque Center
10:17AM 34.5300 -111.2897 39° Northeast 216 249 23,800 480 Climbing Albuquerque Center
10:18AM 34.5786 -111.2458 37° Northeast 218 251 24,400 480 Climbing Albuquerque Center
10:19AM 34.6389 -111.1917 36° Northeast 222 255 24,900 240 Climbing Albuquerque Center
10:20AM 34.6889 -111.1456 37° Northeast 225 259 25,000  Climbing Albuquerque Center
10:21AM 34.7422 -111.0942 38° Northeast 237 273 25,000  Level Albuquerque Center
10:22AM 34.7986 -111.0411 38° Northeast 250 288 25,000  Level Albuquerque Center
10:23AM 34.8544 -110.9875 38° Northeast 255 293 25,000  Level Albuquerque Center
10:24AM 34.9103 -110.9336 38° Northeast 256 295 25,000  Level Albuquerque Center
10:25AM 34.9669 -110.8797 38° Northeast 258 297 25,000  Level Albuquerque Center
10:26AM 35.0350 -110.8164 37° Northeast 258 297 25,000  Level Albuquerque Center
10:27AM 35.0886 -110.7544 43° Northeast 259 298 25,000  Level Albuquerque Center
10:29AM 35.1294 -110.6839 55° Northeast 263 303 25,000  Level Albuquerque Center
10:30AM 35.1822 -110.6061 50° Northeast 265 305 25,000  Level Albuquerque Center
10:31AM 35.2236 -110.5397 53° Northeast 259 298 25,000  Level Albuquerque Center
10:32AM 35.2736 -110.4625 52° Northeast 259 298 25,000  Level Albuquerque Center
10:33AM 35.3156 -110.3978 52° Northeast 256 295 25,000  Level Albuquerque Center
10:34AM 35.3644 -110.3217 52° Northeast 255 293 25,000  Level Albuquerque Center
10:35AM 35.4075 -110.2553 51° Northeast 258 297 25,000  Level Albuquerque Center
10:36AM 35.4503 -110.1894 51° Northeast 258 297 25,000  Level Albuquerque Center
10:37AM 35.4986 -110.1119 53° Northeast 256 295 25,000  Level Albuquerque Center
10:38AM 35.5406 -110.0467 52° Northeast 255 293 25,000  Level Albuquerque Center
10:39AM 35.5889 -109.9711 52° Northeast 253 291 25,000  Level Albuquerque Center
10:40AM 35.6300 -109.9058 52° Northeast 253 291 25,000  Level Albuquerque Center
10:41AM 35.6783 -109.8300 52° Northeast 252 290 25,000  Level Albuquerque Center
10:42AM 35.7203 -109.7644 52° Northeast 253 291 25,000  Level Albuquerque Center
10:43AM 35.7689 -109.6889 52° Northeast 253 291 25,000  Level Albuquerque Center
10:44AM 35.8108 -109.6231 52° Northeast 253 291 25,000  Level Albuquerque Center
10:45AM 35.8583 -109.5469 52° Northeast 252 290 25,000  Level Albuquerque Center
10:46AM 35.8989 -109.4831 52° Northeast 250 288 25,000  Level Albuquerque Center
10:47AM 35.9461 -109.4078 52° Northeast 248 285 25,000  Level Albuquerque Center
10:48AM 35.9869 -109.3414 53° Northeast 251 289 25,000  Level Albuquerque Center
10:49AM 36.0278 -109.2758 52° Northeast 251 289 25,000  Level Albuquerque Center
10:50AM 36.0750 -109.1997 52° Northeast 250 288 25,000  Level Albuquerque Center
10:51AM 36.1150 -109.1372 52° Northeast 248 285 25,000  Level Albuquerque Center
10:52AM 36.1567 -109.0681 53° Northeast 249 287 25,000  Level Albuquerque Center
10:53AM 36.2042 -108.9925 52° Northeast 249 287 25,000  Level Albuquerque Center
10:55AM 36.2597 -108.9042 52° Northeast 252 290 25,000  Level Denver Center
10:56AM 36.3003 -108.8381 53° Northeast 251 289 25,000  Level Denver Center
10:57AM 36.3475 -108.7614 53° Northeast 250 288 25,000  Level Denver Center
10:58AM 36.3867 -108.6961 53° Northeast 247 284 25,000  Level Denver Center
10:59AM 36.4336 -108.6203 52° Northeast 247 284 25,000  Level Denver Center
11:00AM 36.4728 -108.5561 53° Northeast 244 281 25,000  Level Denver Center
11:01AM 36.5117 -108.4919 53° Northeast 243 280 25,000  Level Denver Center
11:02AM 36.5578 -108.4153 53° Northeast 246 283 25,000  Level Denver Center
11:03AM 36.5969 -108.3511 53° Northeast 244 281 25,000  Level Denver Center
11:04AM 36.6436 -108.2756 52° Northeast 245 282 25,000  Level Denver Center
11:05AM 36.6758 -108.2211 54° Northeast 246 283 25,000  Level Denver Center
11:06AM 36.7261 -108.1361 54° Northeast 240 276 25,000  Level Denver Center
11:07AM 36.7619 -108.0661 57° Northeast 248 285 25,000  Level Denver Center
11:08AM 36.7969 -107.9806 63° Northeast 248 285 25,000  Level Denver Center
11:09AM 36.8281 -107.9089 62° Northeast 246 283 25,000  Level Denver Center
11:10AM 36.8636 -107.8219 63° Northeast 251 289 25,000  Level Denver Center
11:11AM 36.8944 -107.7483 62° Northeast 250 288 25,000  Level Denver Center
11:12AM 36.9242 -107.6767 63° Northeast 245 282 25,000  Level Denver Center
11:13AM 36.9586 -107.5939 62° Northeast 241 277 25,000  Level Denver Center
11:14AM 36.9972 -107.4986 63° Northeast 240 276 25,000  Level Denver Center
11:15AM 37.0267 -107.4275 63° Northeast 240 276 25,000  Level Denver Center
11:16AM 37.0614 -107.3422 63° Northeast 247 284 25,000  Level Denver Center
11:17AM 37.0908 -107.2686 63° Northeast 248 285 25,000  Level Denver Center
11:19AM 37.1264 -107.1839 62° Northeast 247 284 25,000  Level Denver Center
11:20AM 37.1567 -107.1094 63° Northeast 248 285 25,000  Level Denver Center
11:21AM 37.1869 -107.0356 63° Northeast 250 288 25,000  Level Denver Center
11:22AM 37.2206 -106.9486 64° Northeast 247 284 25,000  Level Denver Center
11:23AM 37.2519 -106.8772 61° Northeast 245 282 25,000  Level Denver Center
11:24AM 37.2861 -106.7917 63° Northeast 245 282 25,000  Level Denver Center
11:25AM 37.3133 -106.7189 65° Northeast 242 278 25,000  Level Denver Center
11:26AM 37.3483 -106.6347 62° Northeast 243 280 25,000  Level Denver Center
11:27AM 37.3772 -106.5617 64° Northeast 244 281 25,000  Level Denver Center
11:28AM 37.4172 -106.4853 57° Northeast 237 273 25,000  Level Denver Center
11:29AM 37.4600 -106.4339 44° Northeast 225 259 25,000  Level Denver Center
11:30AM 37.5158 -106.3775 39° Northeast 227 261 25,000  Level Denver Center
11:31AM 37.5589 -106.3244 44° Northeast 227 261 25,000  Level Denver Center
11:32AM 37.6114 -106.2633 43° Northeast 229 264 25,000  Level Denver Center
11:33AM 37.6547 -106.2108 44° Northeast 227 261 25,000  Level Denver Center
11:34AM 37.7000 -106.1592 42° Northeast 226 260 25,000  Level Denver Center
11:35AM 37.7539 -106.0978 42° Northeast 232 267 25,000  Level Denver Center
11:36AM 37.7975 -106.0431 45° Northeast 230 265 25,000  Level Denver Center
11:37AM 37.8517 -105.9817 42° Northeast 232 267 25,000  Level Denver Center
11:38AM 37.8883 -105.9378 43° Northeast 230 265 25,000  Level Denver Center
11:39AM 37.9481 -105.8678 43° Northeast 229 264 25,000  Level Denver Center
11:40AM 37.9925 -105.8158 43° Northeast 227 261 25,000  Level Denver Center
11:41AM 38.0428 -105.7542 44° Northeast 225 259 25,000  Level Denver Center
11:42AM 38.0886 -105.7019 42° Northeast 229 264 25,000  Level Denver Center
11:43AM 38.1411 -105.6386 43° Northeast 232 267 25,000  Level Denver Center
11:44AM 38.1864 -105.5850 43° Northeast 232 267 25,000  Level Denver Center
11:45AM 38.2397 -105.5219 43° Northeast 233 268 25,000  Level Denver Center
11:46AM 38.2831 -105.4683 44° Northeast 230 265 25,000  Level Denver Center
11:48AM 38.3350 -105.4053 44° Northeast 233 268 25,000  Level Denver Center
11:49AM 38.3550 -105.3108 75° East 272 313 25,000  Level Denver Center
11:50AM 38.3467 -105.2008 95° East 281 323 25,000  Level Denver Center
11:51AM 38.3406 -105.1092 95° East 275 316 25,000  Level Denver Center
11:52AM 38.3336 -105.0033 95° East 271 312 25,000  Level Denver Center
11:53AM 38.3278 -104.9111 95° East 272 313 25,000  Level Denver Center
11:54AM 38.3192 -104.7875 95° East 274 315 25,000  Level Denver Center
11:55AM 38.3264 -104.7000 84° East 279 321 25,000  Level Denver Center
11:56AM 38.3653 -104.6206 58° Northeast 243 280 25,000  Level Denver Center
11:57AM 38.3983 -104.5481 60° Northeast 244 281 25,000  Level Denver Center
11:58AM 38.4361 -104.4644 60° Northeast 244 281 25,000  Level Denver Center
11:59AM 38.4689 -104.3919 60° Northeast 245 282 25,000  Level Denver Center
12:00PM 38.5067 -104.3103 59° Northeast 241 277 25,000  Level Denver Center
12:01PM 38.5392 -104.2397 59° Northeast 240 276 25,000  Level Denver Center
12:02PM 38.5764 -104.1572 60° Northeast 240 276 25,000  Level Denver Center
12:03PM 38.6089 -104.0869 59° Northeast 240 276 25,000  Level Denver Center
12:04PM 38.6417 -104.0144 60° Northeast 244 281 25,000  Level Denver Center
12:05PM 38.6783 -103.9306 61° Northeast 242 278 25,000  Level Denver Center
12:07PM 38.7119 -103.8575 59° Northeast 248 285 25,000  Level Denver Center
12:08PM 38.7483 -103.7756 60° Northeast 238 274 25,000  Level Denver Center
12:09PM 38.7814 -103.7033 60° Northeast 241 277 25,000  Level Denver Center
12:10PM 38.8178 -103.6183 61° Northeast 243 280 25,000  Level Denver Center
12:11PM 38.8431 -103.5428 67° East 242 278 25,000  Level Denver Center
12:12PM 38.8733 -103.4514 67° East 246 283 25,000  Level Denver Center
12:13PM 38.8997 -103.3700 67° East 246 283 25,000  Level Denver Center
12:14PM 38.9258 -103.2881 68° East 247 284 25,000  Level Denver Center
12:15PM 38.9517 -103.2072 68° East 245 282 25,000  Level Denver Center
12:16PM 38.9781 -103.1244 68° East 247 284 25,000  Level Denver Center
12:17PM 39.0042 -103.0447 67° East 243 280 25,000  Level Denver Center
12:18PM 39.0294 -102.9633 68° East 243 280 25,000  Level Denver Center
12:19PM 39.0608 -102.8694 67° East 243 280 25,000  Level Denver Center
12:20PM 39.0861 -102.7883 68° East 243 280 25,000  Level Denver Center
12:21PM 39.1117 -102.7089 67° East 241 277 25,000  Level Denver Center
12:22PM 39.1356 -102.6325 68° East 241 277 25,000  Level Denver Center
12:23PM 39.1644 -102.5406 68° East 246 283 25,000  Level Denver Center
12:24PM 39.1897 -102.4625 67° East 247 284 25,000  Level Denver Center
12:25PM 39.2178 -102.3708 68° East 246 283 25,000  Level Denver Center
12:26PM 39.2425 -102.2928 68° East 246 283 25,000  Level Denver Center
12:27PM 39.2708 -102.2000 68° East 249 287 25,000  Level Denver Center
12:28PM 39.2958 -102.1206 68° East 249 287 25,000  Level Denver Center
12:29PM 39.3256 -102.0267 68° East 254 292 25,000  Level Denver Center
12:30PM 39.3492 -101.9517 68° East 250 288 25,000  Level Denver Center
12:31PM 39.3772 -101.8575 69° East 253 291 25,000  Level Denver Center
12:32PM 39.4022 -101.7772 68° East 251 289 25,000  Level Denver Center
12:33PM 39.4319 -101.6836 68° East 252 290 25,000  Level Denver Center
12:34PM 39.4553 -101.6017 70° East 254 292 25,000  Level Denver Center
12:35PM 39.4842 -101.5097 68° East 248 285 25,000  Level Denver Center
12:36PM 39.5081 -101.4283 69° East 253 291 25,000  Level Denver Center
12:38PM 39.5361 -101.3350 69° East 251 289 25,000  Level Denver Center
12:39PM 39.5608 -101.2544 68° East 253 291 25,000  Level Denver Center
12:40PM 39.5894 -101.1608 68° East 250 288 25,000  Level Denver Center
12:41PM 39.6128 -101.0808 69° East 249 287 25,000  Level Denver Center
12:42PM 39.6411 -100.9878 68° East 247 284 25,000  Level Denver Center
12:43PM 39.6653 -100.9064 69° East 252 290 25,000  Level Denver Center
12:44PM 39.6931 -100.8117 69° East 253 291 25,000  Level Denver Center
12:45PM 39.7175 -100.7308 69° East 252 290 25,000  Level Denver Center
12:46PM 39.7442 -100.6356 70° East 253 291 25,000  Level Denver Center
12:47PM 39.7686 -100.5553 68° East 250 288 25,000  Level Denver Center
12:48PM 39.7964 -100.4611 69° East 251 289 25,000  Level Denver Center
12:49PM 39.8192 -100.3822 69° East 248 285 25,000  Level Denver Center
12:50PM 39.8467 -100.2894 69° East 246 283 25,000  Level Denver Center
12:51PM 39.8692 -100.2100 70° East 244 281 25,000  Level Denver Center
12:52PM 39.8922 -100.1289 70° East 248 285 25,000  Level Denver Center
12:53PM 39.9200 -100.0358 69° East 248 285 25,000  Level Denver Center
12:54PM 39.9425 -99.9558 70° East 247 284 25,000  Level Denver Center
12:55PM 39.9694 -99.8628 69° East 247 284 25,000  Level Denver Center
12:56PM 39.9922 -99.7817 70° East 248 285 25,000  Level Denver Center
12:57PM 40.0189 -99.6869 70° East 250 288 25,000  Level Denver Center
12:58PM 40.0417 -99.6069 70° East 247 284 25,000  Level Denver Center
12:59PM 40.0681 -99.5122 70° East 249 287 25,000  Level Denver Center
01:00PM 40.0914 -99.4314 69° East 250 288 25,000  Level Denver Center
01:01PM 40.1181 -99.3361 70° East 250 288 25,000  Level Denver Center
01:02PM 40.1400 -99.2544 71° East 250 288 25,000  Level Denver Center
01:03PM 40.1672 -99.1589 70° East 251 289 25,000  Level Denver Center
01:04PM 40.1897 -99.0778 70° East 249 287 25,000  Level Denver Center
01:05PM 40.2150 -98.9828 71° East 247 284 25,000  Level Denver Center
01:06PM 40.2386 -98.9017 69° East 250 288 25,000  Level Denver Center
01:07PM 40.2567 -98.8408 69° East 248 285 25,000  Level Minneapolis Center
01:08PM 40.2786 -98.7544 72° East 249 287 25,000  Level Minneapolis Center
01:09PM 40.3014 -98.6692 71° East 249 287 25,000  Level Minneapolis Center
01:10PM 40.3289 -98.5653 71° East 250 288 25,000  Level Minneapolis Center
01:11PM 40.3522 -98.4792 70° East 250 288 25,000  Level Minneapolis Center
01:12PM 40.3756 -98.3931 70° East 251 289 25,000  Level Minneapolis Center
01:13PM 40.3992 -98.3067 70° East 252 290 25,000  Level Minneapolis Center
01:15PM 40.4231 -98.2208 70° East 251 289 25,000  Level Minneapolis Center
01:16PM 40.4497 -98.1181 71° East 250 288 25,000  Level Minneapolis Center
01:17PM 40.4739 -98.0322 70° East 250 288 25,000  Level Minneapolis Center
01:18PM 40.5019 -97.9300 70° East 249 287 25,000  Level Minneapolis Center
01:19PM 40.5247 -97.8433 71° East 250 288 25,000  Level Minneapolis Center
01:20PM 40.5436 -97.7739 70° East 251 289 25,000  Level Minneapolis Center
01:21PM 40.5692 -97.6692 72° East 251 289 25,000  Level Minneapolis Center
01:22PM 40.5919 -97.5808 71° East 253 291 25,000  Level Minneapolis Center
01:23PM 40.6144 -97.4936 71° East 253 291 25,000  Level Minneapolis Center
01:24PM 40.6378 -97.4064 71° East 253 291 25,000  Level Minneapolis Center
01:25PM 40.6658 -97.3014 71° East 253 291 25,000  Level Minneapolis Center
01:26PM 40.6881 -97.2128 72° East 254 292 25,000  Level Minneapolis Center
01:27PM 40.7106 -97.1236 72° East 255 293 25,000  Level Minneapolis Center
01:28PM 40.7339 -97.0361 71° East 255 293 25,000  Level Minneapolis Center
01:29PM 40.7558 -96.9461 72° East 256 295 25,000  Level Minneapolis Center
01:30PM 40.7786 -96.8572 71° East 256 295 25,000  Level Minneapolis Center
01:31PM 40.8017 -96.7683 71° East 256 295 25,000  Level Minneapolis Center
01:32PM 40.8275 -96.6614 72° East 256 295 25,000  Level Minneapolis Center
01:33PM 40.8497 -96.5703 72° East 259 298 25,000  Level Minneapolis Center
01:34PM 40.8725 -96.4789 72° East 261 300 25,000  Level Minneapolis Center
01:35PM 40.8947 -96.3903 72° East 257 296 25,000  Level Minneapolis Center
01:36PM 40.9175 -96.2975 72° East 263 303 25,000  Level Minneapolis Center
01:37PM 40.9406 -96.2069 71° East 261 300 25,000  Level Minneapolis Center
01:38PM 40.9678 -96.0978 72° East 262 302 25,000  Level Minneapolis Center
01:39PM 40.9892 -96.0061 73° East 263 303 25,000  Level Minneapolis Center
01:40PM 41.0119 -95.9144 72° East 263 303 25,000 -60 Level Minneapolis Center
01:41PM 41.0336 -95.8225 73° East 263 303 24,900 -360 Descending Minneapolis Center
01:42PM 41.0567 -95.7272 72° East 270 311 24,300 -540 Descending Minneapolis Center
01:44PM 41.0808 -95.6303 72° East 277 319 23,900 -420 Descending Minneapolis Center
01:45PM 41.1078 -95.5175 72° East 271 312 23,500 -420 Descending Minneapolis Center
01:46PM 41.1294 -95.4242 73° East 268 308 23,100 -480 Descending Minneapolis Center
01:47PM 41.1528 -95.3303 72° East 269 310 22,600 -600 Descending Minneapolis Center
01:48PM 41.1750 -95.2350 73° East 270 311 21,900 -960 Descending Minneapolis Center
01:49PM 41.1981 -95.1347 73° East 279 321 20,700 -1,140 Descending Minneapolis Center
01:50PM 41.2217 -95.0331 73° East 287 330 19,600 -1,200 Descending Minneapolis Center
01:51PM 41.2494 -94.9144 73° East 283 326 18,300 -1,080 Descending Minneapolis Center
01:52PM 41.2728 -94.8136 73° East 284 327 17,400 -1,020 Descending Minneapolis Center
01:53PM 41.2972 -94.7128 72° East 286 329 16,200 -1,200 Descending Minneapolis Center
01:53PM 41.3122 -94.6767 61° Northeast 287 330 15,900 -1,020 Descending Minneapolis Center
01:54PM 41.3186 -94.6139 82° East 283 326 15,200 -1,020 Descending Minneapolis Center
01:54PM 41.3342 -94.5642 67° East 278 320 14,800 -1,200 Descending Minneapolis Center
01:55PM 41.3381 -94.5025 85° East 274 315 14,000 -1,200 Descending Minneapolis Center
01:55PM 41.3486 -94.4633 70° East 272 313 13,600 -1,380 Descending Minneapolis Center
01:56PM 41.3489 -94.4022 90° East 273 314 12,600 -1,500 Descending Minneapolis Center
01:56PM 41.3583 -94.3628 72° East 275 316 12,100 -1,380 Descending Minneapolis Center
01:57PM 41.3603 -94.3047 87° East 268 308 11,200 -1,320 Descending Minneapolis Center
01:57PM 41.3706 -94.2647 71° East 269 310 10,800 -1,380 Descending Minneapolis Center
01:58PM 41.3725 -94.2014 88° East 262 302 9,800 -1,200 Descending Minneapolis Center
01:58PM 41.3808 -94.1725 69° East 262 302 9,600 -900 Descending Minneapolis Center
01:59PM 41.3636 -94.1100 110° East 259 298 8,900 -900 Descending Minneapolis Center
01:59PM 41.3592 -94.0689 98° East 254 292 8,600 -900 Descending Minneapolis Center
02:00PM 41.3389 -94.0172 118° Southeast 250 288 8,000 -840 Descending Minneapolis Center
02:01PM 41.3575 -93.9328 74° East 239 275 7,200 -840 Descending Minneapolis Center
02:02PM 41.3769 -93.8425 74° East 237 273 6,300 -1,080 Descending Minneapolis Center
02:03PM 41.4114 -93.7397 66° East 242 278 4,900 -1,200 Descending Minneapolis Center
02:04PM 41.4408 -93.6647 62° Northeast 226 260 3,700 -900 Descending Minneapolis Center
02:05PM 41.4708 -93.6008 58° Northeast 204 235 3,100 -660 Descending Minneapolis Center
02:06PM 41.4997 -93.6064 352° North 124 143 2,400 -720 Descending Minneapolis Center
02:07PM 41.5175 -93.6336 311° West 100 115 1,600 -720 Descending Minneapolis Center
02:08PM 41.5353 -93.6586 314° West 93 107 1,000 -600 Descending Minneapolis Center